createdAt,value
2018-01-18T00:28:56.799Z,84.67
2018-01-18T00:31:24.316Z,84.59
2018-01-18T00:33:51.847Z,84.39
2018-01-18T00:36:19.359Z,84.33
2018-01-18T00:38:46.874Z,84.56
2018-01-18T00:41:14.387Z,84.37
2018-01-18T00:43:41.890Z,84.26
2018-01-18T00:46:09.426Z,84.28
2018-01-18T00:48:36.938Z,84.01
2018-01-18T00:51:04.436Z,83.87
2018-01-18T00:53:31.956Z,83.92
2018-01-18T00:55:59.461Z,84.07
2018-01-18T00:58:26.971Z,84.11
2018-01-18T01:00:54.472Z,83.95
2018-01-18T01:03:21.980Z,84.14
2018-01-18T01:05:49.496Z,84.47
2018-01-18T01:08:17.008Z,84.26
2018-01-18T01:10:44.544Z,84.39
2018-01-18T01:13:12.066Z,84.38
2018-01-18T01:15:39.585Z,84.47
2018-01-18T01:18:07.089Z,84.55
2018-01-18T01:20:34.601Z,84.41
2018-01-18T01:23:02.110Z,84.47
2018-01-18T01:25:29.628Z,84.54
2018-01-18T01:27:57.129Z,84.55
2018-01-18T01:30:24.642Z,84.58
2018-01-18T01:32:52.172Z,84.57
2018-01-18T01:35:19.677Z,84.49
2018-01-18T01:37:47.171Z,84.58
2018-01-18T01:40:14.699Z,84.78
2018-01-18T01:42:42.229Z,84.79
2018-01-18T01:45:09.733Z,84.75
2018-01-18T01:47:37.297Z,84.78
2018-01-18T01:50:04.803Z,84.83
2018-01-18T01:52:32.304Z,84.91
2018-01-18T01:54:59.819Z,85.12
2018-01-18T01:57:27.338Z,85.23
2018-01-18T01:59:54.840Z,85.36
2018-01-18T02:02:22.343Z,85.66
2018-01-18T02:04:49.859Z,85.95
2018-01-18T02:07:17.372Z,85.97
2018-01-18T02:09:44.871Z,86.29
2018-01-18T02:12:12.380Z,86.97
2018-01-18T02:14:39.886Z,87.16
2018-01-18T02:17:07.409Z,87.64
2018-01-18T02:19:34.922Z,88.08
2018-01-18T02:22:02.422Z,88.19
2018-01-18T02:24:29.925Z,88.04
2018-01-18T02:26:57.425Z,88.37
2018-01-18T02:29:24.928Z,88.38
2018-01-18T02:31:52.453Z,88.63
2018-01-18T02:34:19.960Z,88.77
2018-01-18T02:36:47.473Z,88.88
2018-01-18T02:39:14.971Z,89.00
2018-01-18T02:41:42.477Z,88.78
2018-01-18T02:44:09.988Z,89.07
2018-01-18T02:46:37.497Z,88.76
2018-01-18T02:49:05.049Z,88.77
2018-01-18T02:51:32.566Z,88.74
2018-01-18T02:54:00.081Z,89.07
2018-01-18T02:56:27.620Z,88.76
2018-01-18T02:58:55.142Z,88.68
2018-01-18T03:01:22.657Z,88.58
2018-01-18T03:03:50.170Z,88.45
2018-01-18T03:06:17.698Z,88.27
2018-01-18T03:08:45.216Z,88.09
2018-01-18T03:11:12.737Z,88.40
2018-01-18T03:13:40.247Z,88.19
2018-01-18T03:16:07.766Z,88.10
2018-01-18T03:18:35.290Z,87.90
2018-01-18T03:21:02.804Z,87.97
2018-01-18T03:23:30.329Z,88.07
2018-01-18T03:25:57.864Z,87.94
2018-01-18T03:28:25.378Z,87.63
2018-01-18T03:30:52.882Z,87.70
2018-01-18T03:33:20.400Z,87.50
2018-01-18T03:35:47.931Z,87.29
2018-01-18T03:38:15.444Z,87.11
2018-01-18T03:40:42.952Z,87.11
2018-01-18T03:43:10.465Z,86.70
2018-01-18T03:45:37.977Z,86.86
2018-01-18T03:48:05.492Z,86.54
2018-01-18T03:50:33.013Z,86.64
2018-01-18T03:53:00.540Z,86.33
2018-01-18T03:55:28.058Z,86.37
2018-01-18T03:57:55.581Z,86.16
2018-01-18T04:00:23.087Z,85.83
2018-01-18T04:02:50.601Z,85.92
2018-01-18T04:05:18.108Z,85.61
2018-01-18T04:07:45.618Z,86.01
2018-01-18T04:10:13.124Z,85.50
2018-01-18T04:12:40.649Z,85.21
2018-01-18T04:15:08.166Z,85.29
2018-01-18T04:17:35.684Z,85.11
2018-01-18T04:20:03.197Z,85.46
2018-01-18T04:22:30.715Z,85.44
2018-01-18T04:24:58.228Z,85.64
2018-01-18T04:27:25.744Z,85.93
2018-01-18T04:29:53.271Z,85.84
2018-01-18T04:32:20.781Z,85.67
2018-01-18T04:34:48.309Z,85.82
2018-01-18T04:37:15.816Z,85.83
2018-01-18T04:39:43.330Z,85.47
2018-01-18T04:42:10.837Z,85.63
2018-01-18T04:44:38.352Z,85.50
2018-01-18T04:47:05.878Z,85.61
2018-01-18T04:49:33.418Z,85.38
2018-01-18T04:52:00.923Z,85.77
2018-01-18T04:54:28.428Z,85.34
2018-01-18T04:56:55.944Z,85.48
2018-01-18T04:59:23.473Z,85.24
2018-01-18T05:01:50.989Z,85.63
2018-01-18T05:04:18.515Z,85.37
2018-01-18T05:06:46.030Z,85.39
2018-01-18T05:09:13.550Z,85.38
2018-01-18T05:11:41.068Z,85.46
2018-01-18T05:14:08.573Z,85.61
2018-01-18T05:16:36.087Z,85.42
2018-01-18T05:19:03.592Z,85.34
2018-01-18T05:21:31.103Z,85.34
2018-01-18T05:23:58.617Z,85.33
2018-01-18T05:26:26.142Z,85.20
2018-01-18T05:28:53.646Z,85.52
2018-01-18T05:31:21.173Z,85.28
2018-01-18T05:33:48.688Z,85.39
2018-01-18T05:36:16.197Z,85.37
2018-01-18T05:38:43.705Z,85.15
2018-01-18T05:41:11.219Z,85.23
2018-01-18T05:43:38.725Z,85.10
2018-01-18T05:46:06.255Z,85.11
2018-01-18T05:48:33.791Z,85.16
2018-01-18T05:51:01.316Z,84.88
2018-01-18T05:53:28.829Z,85.26
2018-01-18T05:55:56.347Z,85.36
2018-01-18T05:58:23.854Z,85.20
2018-01-18T06:00:51.367Z,85.28
2018-01-18T06:03:18.878Z,85.27
2018-01-18T06:05:46.399Z,85.25
2018-01-18T06:08:13.914Z,85.51
2018-01-18T06:10:41.429Z,85.40
2018-01-18T06:13:08.948Z,85.39
2018-01-18T06:15:36.468Z,85.28
2018-01-18T06:18:03.978Z,85.43
2018-01-18T06:20:31.489Z,85.47
2018-01-18T06:22:59.009Z,84.93
2018-01-18T06:25:26.513Z,85.28
2018-01-18T06:27:54.907Z,85.06
2018-01-18T06:30:22.427Z,85.13
2018-01-18T06:32:49.970Z,85.35
2018-01-18T06:35:17.487Z,85.39
2018-01-18T06:37:45.004Z,85.06
2018-01-18T06:40:12.524Z,85.00
2018-01-18T06:42:40.037Z,85.05
2018-01-18T06:45:07.549Z,84.91
2018-01-18T06:47:35.062Z,84.81
2018-01-18T06:50:02.580Z,84.60
2018-01-18T06:52:30.100Z,84.57
2018-01-18T06:54:57.613Z,84.39
2018-01-18T06:57:25.140Z,84.66
2018-01-18T06:59:52.661Z,84.39
2018-01-18T07:02:20.186Z,84.34
2018-01-18T07:04:47.704Z,84.28
2018-01-18T07:07:15.226Z,84.30
2018-01-18T07:09:42.760Z,84.21
2018-01-18T07:12:10.289Z,84.34
2018-01-18T07:14:37.806Z,84.10
2018-01-18T07:17:05.337Z,84.01
2018-01-18T07:19:32.865Z,84.12
2018-01-18T07:22:00.376Z,84.14
2018-01-18T07:24:27.919Z,84.21
2018-01-18T07:26:55.443Z,83.82
2018-01-18T07:29:22.958Z,83.63
2018-01-18T07:31:50.478Z,83.52
2018-01-18T07:34:17.991Z,83.43
2018-01-18T07:36:45.510Z,83.30
2018-01-18T07:39:13.038Z,83.00
2018-01-18T07:41:40.548Z,82.69
2018-01-18T07:44:08.072Z,82.99
2018-01-18T07:46:35.574Z,83.80
2018-01-18T07:49:03.103Z,82.60
2018-01-18T07:51:30.633Z,82.66
2018-01-18T07:54:00.023Z,82.42
2018-01-18T07:56:27.569Z,82.43
2018-01-18T07:58:55.091Z,81.77
2018-01-18T08:01:22.601Z,82.02
2018-01-18T08:03:55.790Z,81.50
2018-01-18T08:06:23.314Z,81.40
2018-01-18T08:08:50.839Z,81.28
2018-01-18T08:11:18.354Z,81.29
2018-01-18T08:13:45.880Z,81.05
2018-01-18T08:16:13.403Z,80.80
2018-01-18T08:18:40.932Z,80.97
2018-01-18T08:21:08.452Z,80.66
2018-01-18T08:23:35.986Z,80.68
2018-01-18T08:26:03.504Z,80.36
2018-01-18T08:28:31.027Z,80.43
2018-01-18T08:30:58.555Z,80.17
2018-01-18T08:33:26.082Z,79.58
2018-01-18T08:35:53.597Z,79.31
2018-01-18T08:38:21.110Z,79.41
2018-01-18T08:40:48.612Z,79.55
2018-01-18T08:43:16.129Z,78.68
2018-01-18T08:45:43.646Z,78.53
2018-01-18T08:48:11.152Z,78.34
2018-01-18T08:50:38.659Z,78.53
2018-01-18T08:53:07.337Z,78.26
2018-01-18T08:55:34.854Z,78.68
2018-01-18T08:58:02.359Z,78.66
2018-01-18T09:00:29.895Z,78.75
2018-01-18T09:02:57.445Z,78.88
2018-01-18T09:05:24.956Z,79.34
2018-01-18T09:07:52.462Z,79.44
2018-01-18T09:10:19.973Z,80.00
2018-01-18T09:12:47.487Z,80.58
2018-01-18T09:15:15.013Z,82.03
2018-01-18T09:17:42.526Z,82.27
2018-01-18T09:20:10.031Z,82.86
2018-01-18T09:22:37.557Z,83.04
2018-01-18T09:25:05.083Z,83.79
2018-01-18T09:27:32.596Z,84.27
2018-01-18T09:30:00.124Z,85.33
2018-01-18T09:32:27.660Z,85.58
2018-01-18T09:34:55.177Z,85.62
2018-01-18T09:37:22.689Z,86.57
2018-01-18T09:39:50.211Z,86.55
2018-01-18T09:42:17.728Z,87.20
2018-01-18T09:44:45.278Z,87.74
2018-01-18T09:47:12.781Z,87.79
2018-01-18T09:49:40.286Z,88.60
2018-01-18T09:52:07.846Z,89.25
2018-01-18T09:54:35.361Z,89.65
2018-01-18T09:57:02.904Z,89.77
2018-01-18T09:59:30.422Z,90.14
2018-01-18T10:01:57.924Z,90.41
2018-01-18T10:04:25.449Z,91.11
2018-01-18T10:06:52.970Z,91.26
2018-01-18T10:09:20.471Z,91.51
2018-01-18T10:11:47.988Z,91.71
2018-01-18T10:14:15.489Z,91.56
2018-01-18T10:16:42.993Z,92.07
2018-01-18T10:19:10.502Z,92.07
2018-01-18T10:21:38.008Z,92.18
2018-01-18T10:24:05.523Z,92.30
2018-01-18T10:26:33.028Z,92.37
2018-01-18T10:29:00.532Z,92.50
2018-01-18T10:31:28.043Z,92.53
2018-01-18T10:33:55.561Z,92.58
2018-01-18T10:36:23.056Z,92.48
2018-01-18T10:38:50.572Z,92.45
2018-01-18T10:41:18.082Z,92.26
2018-01-18T10:43:45.605Z,92.22
2018-01-18T10:46:13.131Z,92.26
2018-01-18T10:48:40.638Z,92.29
2018-01-18T10:51:08.151Z,92.20
2018-01-18T10:53:35.663Z,92.19
2018-01-18T10:56:03.171Z,92.22
2018-01-18T10:58:30.708Z,92.09
2018-01-18T11:00:58.242Z,92.22
2018-01-18T11:03:25.749Z,92.28
2018-01-18T11:05:53.278Z,92.17
2018-01-18T11:08:20.797Z,92.48
2018-01-18T11:10:48.320Z,92.14
2018-01-18T11:13:15.837Z,92.32
2018-01-18T11:15:43.351Z,92.67
2018-01-18T11:18:10.864Z,92.48
2018-01-18T11:20:38.379Z,92.58
2018-01-18T11:23:05.895Z,92.52
2018-01-18T11:25:33.408Z,92.63
2018-01-18T11:28:00.945Z,92.55
2018-01-18T11:30:28.474Z,92.52
2018-01-18T11:32:56.000Z,92.72
2018-01-18T11:35:23.509Z,92.48
2018-01-18T11:37:51.012Z,92.41
2018-01-18T11:40:18.521Z,92.42
2018-01-18T11:42:46.024Z,92.26
2018-01-18T11:45:13.545Z,92.24
2018-01-18T11:47:41.057Z,92.30
2018-01-18T11:50:08.565Z,92.03
2018-01-18T11:52:36.071Z,92.04
2018-01-18T11:55:03.590Z,92.02
2018-01-18T11:57:31.118Z,91.70
2018-01-18T11:59:58.633Z,91.95
2018-01-18T12:02:26.150Z,92.03
2018-01-18T12:04:53.653Z,92.09
2018-01-18T12:07:21.176Z,91.70
2018-01-18T12:09:48.685Z,91.40
2018-01-18T12:12:16.237Z,91.35
2018-01-18T12:14:43.752Z,91.25
2018-01-18T12:17:11.286Z,91.21
2018-01-18T12:19:38.796Z,91.20
2018-01-18T12:22:06.308Z,90.98
2018-01-18T12:24:33.812Z,90.99
2018-01-18T12:27:01.325Z,90.87
2018-01-18T12:29:28.838Z,90.96
2018-01-18T12:31:56.365Z,90.82
2018-01-18T12:34:23.872Z,90.94
2018-01-18T12:36:51.385Z,91.19
2018-01-18T12:39:18.913Z,91.00
2018-01-18T12:41:46.424Z,91.16
2018-01-18T12:44:13.934Z,91.08
2018-01-18T12:46:41.446Z,91.01
2018-01-18T12:49:08.958Z,91.20
2018-01-18T12:51:36.482Z,90.97
2018-01-18T12:54:03.993Z,90.94
2018-01-18T12:56:31.508Z,90.75
2018-01-18T12:58:59.016Z,90.49
2018-01-18T13:01:26.521Z,90.47
2018-01-18T13:03:54.025Z,90.35
2018-01-18T13:06:21.533Z,90.30
2018-01-18T13:08:49.050Z,90.60
2018-01-18T13:11:16.548Z,90.71
2018-01-18T13:13:44.061Z,90.66
2018-01-18T13:16:11.569Z,90.73
2018-01-18T13:18:39.084Z,90.48
2018-01-18T13:21:06.589Z,90.51
2018-01-18T13:23:34.103Z,90.52
2018-01-18T13:26:01.632Z,90.48
2018-01-18T13:28:29.141Z,90.33
2018-01-18T13:30:56.681Z,90.00
2018-01-18T13:33:24.215Z,89.67
2018-01-18T13:35:51.738Z,89.81
2018-01-18T13:38:19.244Z,89.75
2018-01-18T13:40:46.754Z,89.72
2018-01-18T13:43:14.269Z,89.44
2018-01-18T13:45:41.773Z,89.37
2018-01-18T13:48:09.287Z,88.98
2018-01-18T13:50:36.799Z,88.92
2018-01-18T13:53:04.350Z,89.22
2018-01-18T13:55:31.870Z,89.09
2018-01-18T13:57:59.395Z,88.89
2018-01-18T14:00:26.925Z,88.42
2018-01-18T14:02:54.445Z,88.41
2018-01-18T14:05:22.294Z,88.54
2018-01-18T14:07:49.809Z,88.83
2018-01-18T14:10:17.321Z,89.21
2018-01-18T14:12:44.832Z,89.11
2018-01-18T14:15:12.351Z,88.83
2018-01-18T14:17:39.873Z,87.99
2018-01-18T14:20:07.390Z,87.81
2018-01-18T14:22:34.909Z,87.32
2018-01-18T14:25:02.422Z,87.11
2018-01-18T14:27:29.969Z,86.75
2018-01-18T14:29:57.588Z,87.02
2018-01-18T14:32:25.098Z,86.38
2018-01-18T14:34:52.615Z,85.58
2018-01-18T14:37:20.122Z,85.23
2018-01-18T14:39:47.627Z,85.08
2018-01-18T14:42:15.140Z,85.59
2018-01-18T14:44:42.649Z,85.11
2018-01-18T14:47:10.150Z,85.15
2018-01-18T14:49:37.680Z,85.24
2018-01-18T14:52:05.204Z,85.62
2018-01-18T14:54:32.729Z,85.44
2018-01-18T14:57:00.238Z,85.94
2018-01-18T14:59:27.740Z,86.70
2018-01-18T15:01:55.257Z,86.40
2018-01-18T15:04:22.764Z,87.12
2018-01-18T15:06:50.274Z,87.41
2018-01-18T15:09:17.785Z,87.55
2018-01-18T15:11:45.289Z,88.05
2018-01-18T15:14:12.793Z,88.14
2018-01-18T15:16:40.304Z,88.54
2018-01-18T15:19:07.809Z,88.41
2018-01-18T15:21:35.312Z,88.78
2018-01-18T15:24:02.828Z,88.74
2018-01-18T15:26:30.333Z,88.95
2018-01-18T15:28:57.846Z,89.01
2018-01-18T15:31:25.351Z,89.37
2018-01-18T15:33:52.864Z,89.33
2018-01-18T15:36:20.377Z,89.46
2018-01-18T15:38:47.893Z,89.82
2018-01-18T15:41:15.394Z,89.69
2018-01-18T15:43:42.937Z,89.86
2018-01-18T15:46:10.458Z,90.15
2018-01-18T15:48:37.967Z,90.02
2018-01-18T15:51:05.478Z,90.35
2018-01-18T15:53:32.990Z,90.36
2018-01-18T15:56:00.527Z,89.99
2018-01-18T15:58:28.040Z,89.96
2018-01-18T16:00:55.560Z,90.15
2018-01-18T16:03:23.070Z,90.21
2018-01-18T16:05:50.609Z,90.71
2018-01-18T16:08:18.122Z,90.91
2018-01-18T16:10:45.640Z,90.74
2018-01-18T16:13:13.148Z,91.09
2018-01-18T16:15:40.656Z,91.11
2018-01-18T16:18:08.165Z,91.17
2018-01-18T16:20:35.682Z,91.01
2018-01-18T16:23:03.190Z,90.92
2018-01-18T16:25:30.704Z,90.62
2018-01-18T16:27:58.219Z,90.32
2018-01-18T16:30:25.726Z,90.42
2018-01-18T16:32:53.233Z,90.60
2018-01-18T16:35:20.737Z,90.32
2018-01-18T16:37:48.277Z,90.42
2018-01-18T16:40:16.490Z,90.47
2018-01-18T16:42:44.006Z,90.58
2018-01-18T16:45:11.533Z,90.32
2018-01-18T16:47:39.046Z,90.09
2018-01-18T16:50:06.553Z,89.98
2018-01-18T16:52:34.058Z,90.07
2018-01-18T16:55:01.558Z,89.91
2018-01-18T16:57:29.070Z,89.75
2018-01-18T16:59:56.600Z,89.92
2018-01-18T17:02:24.135Z,89.56
2018-01-18T17:04:51.651Z,89.51
2018-01-18T17:10:12.719Z,89.61
2018-01-18T17:15:40.785Z,90.05
2018-01-18T17:18:08.394Z,89.68
2018-01-18T17:20:36.007Z,89.28
2018-01-18T17:23:03.587Z,88.53
2018-01-18T17:25:31.187Z,88.63
2018-01-18T17:27:58.767Z,88.82
2018-01-18T17:30:26.339Z,89.09
2018-01-18T17:32:53.906Z,89.07
2018-01-18T17:35:21.441Z,89.20
2018-01-18T17:37:48.994Z,89.69
2018-01-18T17:40:16.635Z,89.60
2018-01-18T17:42:44.213Z,89.54
2018-01-18T17:45:11.830Z,89.71
2018-01-18T17:47:39.399Z,89.82
2018-01-18T17:50:06.959Z,90.16
2018-01-18T17:52:34.646Z,89.76
2018-01-18T17:55:02.213Z,90.24
2018-01-18T17:57:29.809Z,90.23
2018-01-18T17:59:57.371Z,90.05
2018-01-18T18:02:24.952Z,89.89
2018-01-18T18:04:52.522Z,90.08
2018-01-18T18:07:20.110Z,90.10
2018-01-18T18:09:47.696Z,90.32
2018-01-18T18:12:15.263Z,90.14
2018-01-18T18:14:42.832Z,90.26
2018-01-18T18:17:10.427Z,90.50
2018-01-18T18:19:38.009Z,90.39
2018-01-18T18:22:05.605Z,90.69
2018-01-18T18:24:33.158Z,90.66
2018-01-18T18:27:00.721Z,91.11
2018-01-18T18:29:28.288Z,90.84
2018-01-18T18:31:55.852Z,90.88
2018-01-18T18:34:23.370Z,91.26
2018-01-18T18:36:51.015Z,91.25
2018-01-18T18:39:18.546Z,90.83
2018-01-18T18:41:46.049Z,90.70
2018-01-18T18:44:13.562Z,90.95
2018-01-18T18:46:41.077Z,90.71
2018-01-18T18:49:08.591Z,90.85
2018-01-18T18:51:36.099Z,90.44
2018-01-18T18:54:03.625Z,90.33
2018-01-18T18:56:31.128Z,90.17
2018-01-18T18:58:58.637Z,89.74
2018-01-18T19:01:26.147Z,89.57
2018-01-18T19:03:53.658Z,89.27
2018-01-18T19:06:21.195Z,89.02
2018-01-18T19:08:48.706Z,89.11
2018-01-18T19:11:16.226Z,89.22
2018-01-18T19:13:43.745Z,89.11
2018-01-18T19:16:11.258Z,88.77
2018-01-18T19:18:38.784Z,88.26
2018-01-18T19:21:06.304Z,88.54
2018-01-18T19:23:33.824Z,88.39
2018-01-18T19:26:01.336Z,88.20
2018-01-18T19:28:28.850Z,88.03
2018-01-18T19:30:56.378Z,88.04
2018-01-18T19:33:23.931Z,87.83
2018-01-18T19:35:51.440Z,87.90
2018-01-18T19:38:18.961Z,87.68
2018-01-18T19:40:46.473Z,87.70
2018-01-18T19:43:13.989Z,87.58
2018-01-18T19:45:41.515Z,87.66
2018-01-18T19:48:09.030Z,87.81
2018-01-18T19:50:36.553Z,88.32
2018-01-18T19:53:04.067Z,88.51
2018-01-18T19:55:31.586Z,88.22
2018-01-18T19:57:59.092Z,87.98
2018-01-18T20:00:26.600Z,87.47
2018-01-18T20:02:54.102Z,87.27
2018-01-18T20:05:21.618Z,87.25
2018-01-18T20:07:49.208Z,87.06
2018-01-18T20:10:16.721Z,86.58
2018-01-18T20:12:44.234Z,86.46
2018-01-18T20:15:11.738Z,86.58
2018-01-18T20:17:39.244Z,86.57
2018-01-18T20:20:06.770Z,86.19
2018-01-18T20:22:34.282Z,86.09
2018-01-18T20:25:01.797Z,86.18
2018-01-18T20:27:29.320Z,85.83
2018-01-18T20:29:56.829Z,85.99
2018-01-18T20:32:24.347Z,86.17
2018-01-18T20:34:51.864Z,86.51
2018-01-18T20:37:19.376Z,86.08
2018-01-18T20:39:46.889Z,86.24
2018-01-18T20:42:14.416Z,86.01
2018-01-18T20:44:41.932Z,86.20
2018-01-18T20:47:09.458Z,86.36
2018-01-18T20:49:36.981Z,85.99
2018-01-18T20:52:04.490Z,86.11
2018-01-18T20:54:32.003Z,86.08
2018-01-18T20:56:59.523Z,85.88
2018-01-18T20:59:27.035Z,86.22
2018-01-18T21:01:54.541Z,86.13
2018-01-18T21:04:22.056Z,85.95
2018-01-18T21:06:49.574Z,86.35
2018-01-18T21:09:17.068Z,86.24
2018-01-18T21:11:44.589Z,86.28
2018-01-18T21:14:12.100Z,86.40
2018-01-18T21:16:39.625Z,86.61
2018-01-18T21:19:07.132Z,86.54
2018-01-18T21:21:34.650Z,86.56
2018-01-18T21:24:02.188Z,86.57
2018-01-18T21:26:29.714Z,86.19
2018-01-18T21:28:57.216Z,86.28
2018-01-18T21:31:24.712Z,86.06
2018-01-18T21:33:52.234Z,86.13
2018-01-18T21:36:19.733Z,85.77
2018-01-18T21:38:47.249Z,85.35
2018-01-18T21:41:14.748Z,85.18
2018-01-18T21:43:42.248Z,85.11
2018-01-18T21:46:10.584Z,85.44
2018-01-18T21:48:38.096Z,85.47
2018-01-18T21:51:05.621Z,85.35
2018-01-18T21:53:33.130Z,85.23
2018-01-18T21:56:00.638Z,85.25
2018-01-18T21:58:28.141Z,85.34
2018-01-18T22:00:55.649Z,85.47
2018-01-18T22:03:23.198Z,85.44
2018-01-18T22:05:50.769Z,85.39
2018-01-18T22:08:18.281Z,85.60
2018-01-18T22:10:45.789Z,85.47
2018-01-18T22:13:13.405Z,85.67
2018-01-18T22:15:41.917Z,85.79
2018-01-18T22:18:09.434Z,85.63
2018-01-18T22:20:36.942Z,85.83
2018-01-18T22:23:04.480Z,86.01
2018-01-18T22:25:32.020Z,86.03
2018-01-18T22:27:59.619Z,86.08
2018-01-18T22:30:27.132Z,86.14
2018-01-18T22:32:54.640Z,86.16
2018-01-18T22:35:22.207Z,85.81
2018-01-18T22:37:55.280Z,85.57
2018-01-18T22:40:23.776Z,85.58
2018-01-18T22:42:52.018Z,85.57
2018-01-18T22:45:19.946Z,85.57
2018-01-18T22:47:50.272Z,85.45
2018-01-18T22:50:17.807Z,85.51
2018-01-18T22:52:45.316Z,85.62
2018-01-18T22:55:12.856Z,85.28
2018-01-18T22:57:40.436Z,85.41
2018-01-18T23:00:07.950Z,85.20
2018-01-18T23:02:35.533Z,85.31
2018-01-18T23:05:03.042Z,85.37
2018-01-18T23:07:30.570Z,85.41
2018-01-18T23:09:58.081Z,85.25
2018-01-18T23:12:25.601Z,85.33
2018-01-18T23:14:55.058Z,85.25
2018-01-18T23:17:22.731Z,85.20
2018-01-18T23:19:50.250Z,85.16
2018-01-18T23:22:17.770Z,85.40
2018-01-18T23:24:45.426Z,85.11
2018-01-18T23:27:12.953Z,85.02
2018-01-18T23:29:40.473Z,84.98
2018-01-18T23:32:07.989Z,85.01
2018-01-18T23:34:35.553Z,85.30
2018-01-18T23:37:03.111Z,85.30
2018-01-18T23:39:30.639Z,85.05
2018-01-18T23:41:58.146Z,85.17
2018-01-18T23:44:25.669Z,85.33
2018-01-18T23:46:53.180Z,85.20
2018-01-18T23:49:22.047Z,85.36
2018-01-18T23:51:49.598Z,85.52
2018-01-18T23:54:17.211Z,85.23
2018-01-18T23:56:44.736Z,85.40
2018-01-18T23:59:12.240Z,85.23
